Tesshoumaru — JD3071 — position and weather

sailwx.info

Track history (hours):
 
Tides and Currents Weather Stations Pressure Air Temp Water Temp Dewpoint Dewpoint Depression Visibility Wind Speed Wind Dir Waves Ship Positions

Tesshoumaru

Last reported at 2018-May-14 07:52 UTC. Time now 2018-May-25 18:52 UTC.
Position N 35°02' E 140°10'.
Warning: this ship's position is 11 days out of date.

Length 76 m; draft 4.5 m.

Type: Cargo ship. MMSI: 431001353.

Date/timePositionNaut miles runAvg speedWind from/ knotsBaromVisibWave heightAir tempDewpointWater temp
2018-May-14 07:52N 35°02' E 140°10'513.1
2018-May-14 07:30N 34°59' E 140°06'1512.5
2018-May-14 06:20N 34°53' E 139°49'614.8
2018-May-14 05:56N 34°58' E 139°45'613.3
2018-May-14 05:31N 35°03' E 139°45'713.3
2018-May-14 05:01N 35°10' E 139°46'612.5
2018-May-14 04:31N 35°16' E 139°46'612.4
2018-May-14 04:01N 35°22' E 139°42'612.6
2018-May-14 03:31N 35°27' E 139°47'713.3
2018-May-14 03:00N 35°32' E 139°53'713.1
2018-May-14 02:30N 35°37' E 139°58'4 2.9
2018-May-14 01:14N 35°41' E 139°57'0 0.0
2018-May-14 00:52N 35°41' E 139°57'0 0.0
2018-May-14 00:29N 35°41' E 139°57'0 0.0
2018-May-13 23:54N 35°41' E 139°57'0 0.0
2018-May-13 23:24N 35°41' E 139°57'0 0.0
2018-May-13 23:00N 35°41' E 139°57'1 2.8
2018-May-13 22:30N 35°39' E 139°58'5 9.1
2018-May-13 22:00N 35°35' E 139°56'713.2
2018-May-13 21:30N 35°29' E 139°52'713.1
2018-May-13 21:00N 35°25' E 139°47'612.7
2018-May-13 20:31N 35°19' E 139°44'611.7
2018-May-13 20:01N 35°13' E 139°47'713.6
2018-May-13 19:30N 35°07' E 139°44'713.8
2018-May-13 19:01N 35°02' E 139°38'714.7
2018-May-13 18:30N 34°57' E 139°31'815.3
2018-May-13 17:59N 34°53' E 139°23'815.4
2018-May-13 17:28N 34°48' E 139°15'914.8
2018-May-13 16:52N 34°42' E 139°07'514.1
2018-May-13 16:30N 34°39' E 139°02'713.2
2018-May-13 16:00N 34°35' E 138°56'814.4
2018-May-13 15:29N 34°34' E 138°46'714.1
2018-May-13 15:00N 34°33' E 138°38'714.1
2018-May-13 14:30N 34°32' E 138°30'713.8
2018-May-13 13:58N 34°31' E 138°21'17011.6
2018-May-12 23:25N 33°54' E 135°01'512.7
2018-May-12 23:00N 33°58' E 134°57'713.2
2018-May-12 22:30N 34°03' E 134°51'713.3
2018-May-12 22:00N 34°08' E 134°46'612.8
2018-May-12 21:30N 34°12' E 134°41'611.7
2018-May-12 21:00N 34°16' E 134°35'1 2.8
2018-May-12 20:30N 34°16' E 134°33'0 0.0
2018-May-12 19:59N 34°16' E 134°33'0 0.0
2018-May-12 19:30N 34°16' E 134°33'0 0.0
2018-May-12 19:00N 34°16' E 134°33'0 0.0
2018-May-12 18:30N 34°16' E 134°33'0 0.0
2018-May-12 17:56N 34°16' E 134°33'4 9.8
2018-May-12 17:30N 34°18' E 134°29'713.5
2018-May-12 17:00N 34°21' E 134°21'713.7
2018-May-12 16:30N 34°24' E 134°14'7713.0
2018-May-12 10:34N 34°04' E 132°43'114.3
2018-May-12 10:30N 34°03' E 132°42'713.9
2018-May-12 10:00N 33°60' E 132°35'914.4
2018-May-12 09:23N 33°54' E 132°27'614.4
2018-May-12 08:58N 33°49' E 132°23'714.1
2018-May-12 08:27N 33°44' E 132°16'2614.3
2018-May-12 06:39N 33°27' E 131°53'213.7
2018-May-12 06:30N 33°26' E 131°51'713.2
2018-May-12 05:59N 33°21' E 131°45'7 1.0
2018-May-11 22:45N 33°16' E 131°40'0 1.0
2018-May-11 22:30N 33°16' E 131°40'3 6.3
2018-May-11 21:59N 33°16' E 131°36'1 1.3
2018-May-11 21:30N 33°15' E 131°36'0 0.0
2018-May-11 21:00N 33°15' E 131°36'0 0.0
2018-May-11 20:30N 33°15' E 131°36'0 0.0
2018-May-11 20:00N 33°15' E 131°36'0 0.0
2018-May-11 19:30N 33°15' E 131°36'0 0.0
2018-May-11 19:00N 33°15' E 131°36'0 0.0
2018-May-11 18:28N 33°15' E 131°36'0 0.0
2018-May-11 18:00N 33°15' E 131°36'0 0.0
2018-May-11 17:26N 33°15' E 131°36'0 0.0
2018-May-11 17:01N 33°15' E 131°36'0 0.0
2018-May-11 16:30N 33°15' E 131°36'0 0.0
2018-May-11 15:58N 33°15' E 131°36'0 0.0
2018-May-11 12:45N 33°15' E 131°36'0 0.0
2018-May-11 12:21N 33°15' E 131°36'0 0.0
2018-May-11 11:57N 33°15' E 131°36'0 0.0
2018-May-11 11:29N 33°15' E 131°36'0 0.0
2018-May-11 11:01N 33°15' E 131°36'2 3.8
2018-May-11 10:30N 33°17' E 131°37'713.5
2018-May-11 10:00N 33°22' E 131°42'712.9
2018-May-11 09:28N 33°28' E 131°46'612.8
2018-May-11 09:00N 33°34' E 131°45'713.5
2018-May-11 08:30N 33°40' E 131°41'612.9
2018-May-11 08:00N 33°45' E 131°36'713.3
2018-May-11 07:30N 33°52' E 131°35'713.4
2018-May-11 07:00N 33°58' E 131°33'3 5.6
2018-May-11 06:30N 34°01' E 131°34'0 0.0
2018-May-11 06:01N 34°01' E 131°34'0 0.0
2018-May-11 05:22N 34°01' E 131°34'0 0.0
2018-May-11 04:52N 34°01' E 131°34'0 0.0
2018-May-11 04:22N 34°01' E 131°34'0 0.0
2018-May-11 03:58N 34°01' E 131°34'0 0.0
2018-May-11 03:28N 34°01' E 131°34'0 0.0
2018-May-11 02:58N 34°01' E 131°34'0 0.0
2018-May-11 02:19N 34°01' E 131°34'0 0.0
2018-May-11 01:58N 34°01' E 131°34'0 0.0
2018-May-11 01:19N 34°01' E 131°34'0 0.0
2018-May-11 00:58N 34°01' E 131°34'0 0.1
2018-May-11 00:10N 34°01' E 131°34'0 0.0
2018-May-10 23:52N 34°01' E 131°34'0 0.0
2018-May-10 23:28N 34°01' E 131°34'0 0.0
2018-May-10 22:58N 34°01' E 131°34'0 0.0
2018-May-10 20:16N 34°01' E 131°34'0 0.0
2018-May-10 19:58N 34°01' E 131°34'0 0.0
2018-May-10 19:28N 34°01' E 131°34'0 0.0
2018-May-10 18:46N 34°01' E 131°34'0 0.0
2018-May-10 18:16N 34°01' E 131°34'0 0.0
2018-May-10 17:46N 34°01' E 131°34'0 0.0
2018-May-10 17:22N 34°01' E 131°34'0 0.0
2018-May-10 16:58N 34°01' E 131°34'0 0.0
2018-May-10 16:22N 34°01' E 131°34'0 0.0
2018-May-10 15:46N 34°01' E 131°34'0 0.0
2018-May-10 15:28N 34°01' E 131°34'0 0.0
2018-May-10 14:58N 34°01' E 131°34'0 0.0
2018-May-10 14:28N 34°01' E 131°34'0 0.0
2018-May-10 13:58N 34°01' E 131°34'0 0.0
2018-May-10 13:22N 34°01' E 131°34'0 0.0
2018-May-10 12:58N 34°01' E 131°34'0 0.0
2018-May-10 12:28N 34°01' E 131°34'0 0.0
2018-May-10 11:58N 34°01' E 131°34'0 0.0
2018-May-10 11:22N 34°01' E 131°34'0 0.0
2018-May-10 10:58N 34°01' E 131°34'0 0.0
2018-May-10 10:22N 34°01' E 131°34'0 0.0
2018-May-10 09:58N 34°01' E 131°34'0 0.0
2018-May-10 09:28N 34°01' E 131°34'0 0.0
2018-May-10 08:52N 34°01' E 131°34'0 0.0
2018-May-10 08:10N 34°01' E 131°34'0 0.0
2018-May-10 08:01N 34°01' E 131°34'2 3.7
2018-May-10 07:30N 33°59' E 131°33'0 0.1
2018-May-10 07:00N 33°59' E 131°33'0 0.2
2018-May-10 06:30N 33°59' E 131°33'611.2
2018-May-10 06:00N 33°56' E 131°39'713.3
2018-May-10 05:30N 33°53' E 131°46'713.1
2018-May-10 05:00N 33°51' E 131°53'713.5
2018-May-10 04:30N 33°47' E 132°00'611.7
2018-May-10 04:00N 33°48' E 132°07'612.5
2018-May-10 03:30N 33°54' E 132°10'712.5
2018-May-10 02:56N 34°01' E 132°14'613.8
2018-May-10 02:30N 34°06' E 132°17'713.9
2018-May-10 02:00N 34°12' E 132°21'713.3
2018-May-10 01:30N 34°18' E 132°24'4 7.1
2018-May-10 00:59N 34°21' E 132°27'0 0.0
2018-May-10 00:29N 34°21' E 132°27'0 0.1
2018-May-09 23:59N 34°21' E 132°27'0 0.0
2018-May-09 23:29N 34°21' E 132°27'0 0.0
2018-May-09 22:59N 34°21' E 132°27'0 0.0
2018-May-09 22:29N 34°21' E 132°27'0 0.0
2018-May-09 21:59N 34°21' E 132°27'0 0.0
2018-May-09 21:29N 34°21' E 132°27'0 0.0
2018-May-09 20:59N 34°21' E 132°27'0 0.0
2018-May-09 20:29N 34°21' E 132°27'0 0.0
2018-May-09 19:59N 34°21' E 132°27'0 0.0
2018-May-09 19:29N 34°21' E 132°27'0 0.0
2018-May-09 18:59N 34°21' E 132°27'0 0.0
2018-May-09 18:29N 34°21' E 132°27'0 0.0
2018-May-09 17:59N 34°21' E 132°27'0 0.0
2018-May-09 17:29N 34°21' E 132°27'0 0.0
2018-May-09 16:59N 34°21' E 132°27'0 0.0
2018-May-09 16:29N 34°21' E 132°27'0 0.0
2018-May-09 15:59N 34°21' E 132°27'0 0.0
2018-May-09 15:26N 34°21' E 132°27'0 0.0
2018-May-09 14:59N 34°21' E 132°27'0 0.0
2018-May-09 14:26N 34°21' E 132°27'0 0.0
2018-May-09 13:59N 34°21' E 132°27'0 0.0
2018-May-09 13:29N 34°21' E 132°27'0 0.0
2018-May-09 12:59N 34°21' E 132°27'0 0.0
2018-May-09 12:26N 34°21' E 132°27'0 0.0
2018-May-09 11:59N 34°21' E 132°27'0 0.0
2018-May-09 11:29N 34°21' E 132°27'0 0.0
2018-May-09 10:59N 34°21' E 132°27'0 0.0
2018-May-09 10:29N 34°21' E 132°27'0 0.0
2018-May-09 09:59N 34°21' E 132°27'0 0.0
2018-May-09 09:29N 34°21' E 132°27'0 0.0
2018-May-09 08:59N 34°21' E 132°27'0 0.0
2018-May-09 08:29N 34°21' E 132°27'0 0.0
2018-May-09 07:59N 34°21' E 132°27'0 0.0
2018-May-09 07:29N 34°21' E 132°27'0 0.0
2018-May-09 06:59N 34°21' E 132°27'0 0.0
2018-May-09 06:29N 34°21' E 132°27'0 0.1
2018-May-09 05:59N 34°21' E 132°27'0 0.3
2018-May-09 05:29N 34°21' E 132°27'0 0.0
2018-May-09 04:59N 34°21' E 132°27'0 0.0
2018-May-09 04:26N 34°21' E 132°27'0 0.0
2018-May-09 03:59N 34°21' E 132°27'0 0.0
2018-May-09 03:29N 34°21' E 132°27'0 0.0
2018-May-09 02:59N 34°21' E 132°27'0 0.0
2018-May-09 02:29N 34°21' E 132°27'0 0.0
2018-May-09 01:59N 34°21' E 132°27'0 0.0
2018-May-09 01:29N 34°21' E 132°27'0 0.0
2018-May-09 00:56N 34°21' E 132°27'0 0.0
2018-May-09 00:26N 34°21' E 132°27'0 0.0
2018-May-08 23:59N 34°21' E 132°27'0 0.0
2018-May-08 23:29N 34°21' E 132°27'0 0.0
2018-May-08 22:59N 34°21' E 132°27'0 0.0
2018-May-08 22:29N 34°21' E 132°27'0 0.0
2018-May-08 21:59N 34°21' E 132°27'0 0.0
2018-May-08 21:26N 34°21' E 132°27'0 0.0
2018-May-08 20:56N 34°21' E 132°27'0 0.0
2018-May-08 20:26N 34°21' E 132°27'0 0.0
2018-May-08 19:56N 34°21' E 132°27'0 0.0
2018-May-08 19:26N 34°21' E 132°27'0 0.0
2018-May-08 18:56N 34°21' E 132°27'0 0.0
2018-May-08 18:26N 34°21' E 132°27'0 0.0
2018-May-08 17:59N 34°21' E 132°27'0 0.0
2018-May-08 17:26N 34°21' E 132°27'0 0.0
2018-May-08 16:59N 34°21' E 132°27'0 0.0
2018-May-08 16:29N 34°21' E 132°27'0 0.0
2018-May-08 15:56N 34°21' E 132°27'0 0.0
2018-May-08 15:26N 34°21' E 132°27'0 0.0
2018-May-08 14:59N 34°21' E 132°27'0 0.0
2018-May-08 14:29N 34°21' E 132°27'0 0.0
2018-May-08 13:59N 34°21' E 132°27'0 0.0
2018-May-08 13:29N 34°21' E 132°27'0 0.0
2018-May-08 12:59N 34°21' E 132°27'0 0.0
2018-May-08 12:29N 34°21' E 132°27'0 0.0
2018-May-08 11:59N 34°21' E 132°27'0 0.0
2018-May-08 11:29N 34°21' E 132°27'0 0.0
2018-May-08 10:59N 34°21' E 132°27'0 0.0
2018-May-08 10:29N 34°21' E 132°27'0 0.0
2018-May-08 09:59N 34°21' E 132°27'0 0.0
2018-May-08 09:29N 34°21' E 132°27'0 0.0
2018-May-08 08:59N 34°21' E 132°27'0 0.0
2018-May-08 08:29N 34°21' E 132°27'0 0.0
2018-May-08 07:59N 34°21' E 132°27'0 0.0
2018-May-08 07:29N 34°21' E 132°27'0 0.0
2018-May-08 06:59N 34°21' E 132°27'0 0.0
2018-May-08 06:26N 34°21' E 132°27'0 0.0
2018-May-08 05:59N 34°21' E 132°27'0 0.0
2018-May-08 05:29N 34°21' E 132°27'0 0.0
2018-May-08 04:59N 34°21' E 132°27'0 0.0
2018-May-08 04:29N 34°21' E 132°27'0 0.0
2018-May-08 03:59N 34°21' E 132°27'0 0.0
2018-May-08 03:29N 34°21' E 132°27'0 0.0
2018-May-08 02:59N 34°21' E 132°27'0 0.0
2018-May-08 02:29N 34°21' E 132°27'0 0.0
2018-May-08 01:59N 34°21' E 132°27'0 0.0
2018-May-08 01:29N 34°21' E 132°27'0 0.0
2018-May-08 00:59N 34°21' E 132°27'0 0.0
2018-May-08 00:29N 34°21' E 132°27'0 0.0
2018-May-07 23:59N 34°21' E 132°27'0 0.0
2018-May-07 23:29N 34°21' E 132°27'0 0.0
2018-May-07 22:59N 34°21' E 132°27'0 0.0
2018-May-07 22:23N 34°21' E 132°27'0 0.0
2018-May-07 21:59N 34°21' E 132°27'0 0.0
2018-May-07 21:29N 34°21' E 132°27'0 0.0
2018-May-07 20:53N 34°21' E 132°27'0 0.0
2018-May-07 20:26N 34°21' E 132°27'0 0.0
2018-May-07 19:59N 34°21' E 132°27'0 0.0
2018-May-07 19:29N 34°21' E 132°27'0 0.0
2018-May-07 18:59N 34°21' E 132°27'0 0.0
2018-May-07 18:26N 34°21' E 132°27'0 0.0
2018-May-07 17:59N 34°21' E 132°27'0 0.0
2018-May-07 17:29N 34°21' E 132°27'0 0.0
2018-May-07 16:59N 34°21' E 132°27'0 0.0
2018-May-07 16:29N 34°21' E 132°27'0 0.0
2018-May-07 15:59N 34°21' E 132°27'0 0.0
2018-May-07 15:29N 34°21' E 132°27'0 0.0
2018-May-07 14:59N 34°21' E 132°27'0 0.0
2018-May-07 14:29N 34°21' E 132°27'0 0.0
2018-May-07 13:59N 34°21' E 132°27'0 0.0
2018-May-07 13:26N 34°21' E 132°27'0 0.0
2018-May-07 12:59N 34°21' E 132°27'0 0.0
2018-May-07 12:29N 34°21' E 132°27'0 0.0
2018-May-07 11:59N 34°21' E 132°27'0 0.0
2018-May-07 11:29N 34°21' E 132°27'0 0.0
2018-May-07 10:59N 34°21' E 132°27'0 0.0
2018-May-07 10:29N 34°21' E 132°27'0 0.0
2018-May-07 09:50N 34°21' E 132°27'0 0.0
2018-May-07 09:29N 34°21' E 132°27'0 0.0
2018-May-07 08:59N 34°21' E 132°27'0 0.0
2018-May-07 08:29N 34°21' E 132°27'0 0.0
2018-May-07 07:59N 34°21' E 132°27'0 0.0
2018-May-07 07:29N 34°21' E 132°27'0 0.0
2018-May-07 06:59N 34°21' E 132°27'0 0.0
2018-May-07 06:26N 34°21' E 132°27'0 0.0
2018-May-07 05:59N 34°21' E 132°27'0 0.0
2018-May-07 05:29N 34°21' E 132°27'0 0.0
2018-May-07 04:59N 34°21' E 132°27'0 0.0
2018-May-07 04:29N 34°21' E 132°27'0 0.0
2018-May-07 03:59N 34°21' E 132°27'0 0.0
2018-May-07 03:29N 34°21' E 132°27'0 0.0
2018-May-07 02:59N 34°21' E 132°27'0 0.0
2018-May-07 02:29N 34°21' E 132°27'0 0.0
2018-May-07 01:59N 34°21' E 132°27'0 0.0
2018-May-07 01:29N 34°21' E 132°27'0 0.0
2018-May-07 00:59N 34°21' E 132°27'0 0.0
2018-May-07 00:29N 34°21' E 132°27'0 0.0
2018-May-06 23:59N 34°21' E 132°27'0 0.0
2018-May-06 23:29N 34°21' E 132°27'0 0.0
2018-May-06 22:59N 34°21' E 132°27'0 0.0
2018-May-06 22:29N 34°21' E 132°27'0 0.0
2018-May-06 21:59N 34°21' E 132°27'0 0.0
2018-May-06 21:26N 34°21' E 132°27'0 0.0
2018-May-06 20:59N 34°21' E 132°27'0 0.0
2018-May-06 20:29N 34°21' E 132°27'0 0.0
2018-May-06 19:59N 34°21' E 132°27'0 0.0
2018-May-06 19:29N 34°21' E 132°27'0 0.0
2018-May-06 18:59N 34°21' E 132°27'0 0.0
2018-May-06 18:29N 34°21' E 132°27'0 0.0
2018-May-06 17:59N 34°21' E 132°27'0 0.0
2018-May-06 17:29N 34°21' E 132°27'0 0.0
2018-May-06 16:59N 34°21' E 132°27'0 0.0
2018-May-06 16:29N 34°21' E 132°27'0 0.0
2018-May-06 15:59N 34°21' E 132°27'0 0.0
2018-May-06 15:29N 34°21' E 132°27'0 0.0
2018-May-06 14:59N 34°21' E 132°27'0 0.0
2018-May-06 14:29N 34°21' E 132°27'0 0.0
2018-May-06 13:59N 34°21' E 132°27'0 0.0
2018-May-06 13:29N 34°21' E 132°27'0 0.0
2018-May-06 12:59N 34°21' E 132°27'0 0.0
2018-May-06 12:29N 34°21' E 132°27'0 0.0
2018-May-06 11:59N 34°21' E 132°27'0 0.0
2018-May-06 11:29N 34°21' E 132°27'0 0.0
2018-May-06 10:59N 34°21' E 132°27'0 0.0
2018-May-06 10:29N 34°21' E 132°27'0 0.0
2018-May-06 09:59N 34°21' E 132°27'0 0.0
2018-May-06 09:29N 34°21' E 132°27'0 0.0
2018-May-06 08:59N 34°21' E 132°27'0 0.0
2018-May-06 08:29N 34°21' E 132°27'0 0.0
2018-May-06 07:59N 34°21' E 132°27'0 0.0
2018-May-06 07:29N 34°21' E 132°27'0 0.0
2018-May-06 06:59N 34°21' E 132°27'0 0.0
2018-May-06 06:29N 34°21' E 132°27'0 0.0
2018-May-06 05:59N 34°21' E 132°27'0 0.0
2018-May-06 05:29N 34°21' E 132°27'0 0.0
2018-May-06 04:59N 34°21' E 132°27'0 0.0
2018-May-06 04:26N 34°21' E 132°27'0 0.0
2018-May-06 03:59N 34°21' E 132°27'0 0.0
2018-May-06 03:29N 34°21' E 132°27'0 0.0
2018-May-06 02:56N 34°21' E 132°27'0 0.0
2018-May-06 02:29N 34°21' E 132°27'0 0.0
2018-May-06 01:59N 34°21' E 132°27'0 0.0
2018-May-06 01:26N 34°21' E 132°27'0 0.0
2018-May-06 00:56N 34°21' E 132°27'0 0.0
2018-May-06 00:29N 34°21' E 132°27'0 0.0
2018-May-05 23:59N 34°21' E 132°27'0 0.0
2018-May-05 23:29N 34°21' E 132°27'0 0.0
2018-May-05 22:59N 34°21' E 132°27'0 0.0
2018-May-05 22:20N 34°21' E 132°27'0 0.0
2018-May-05 21:59N 34°21' E 132°27'0 0.0
2018-May-05 21:29N 34°21' E 132°27'0 0.0
2018-May-05 20:59N 34°21' E 132°27'0 0.0
2018-May-05 20:29N 34°21' E 132°27'0 0.0
2018-May-05 19:59N 34°21' E 132°27'0 0.0
2018-May-05 19:29N 34°21' E 132°27'0 0.0
2018-May-05 18:59N 34°21' E 132°27'0 0.0
2018-May-05 18:26N 34°21' E 132°27'0 0.0
2018-May-05 17:59N 34°21' E 132°27'0 0.0
2018-May-05 17:29N 34°21' E 132°27'0 0.0
2018-May-05 16:59N 34°21' E 132°27'0 0.0
2018-May-05 16:29N 34°21' E 132°27'0 0.0
2018-May-05 15:59N 34°21' E 132°27'0 0.0
2018-May-05 15:29N 34°21' E 132°27'0 0.0
2018-May-05 14:59N 34°21' E 132°27'0 0.0
2018-May-05 14:29N 34°21' E 132°27'0 0.0
2018-May-05 13:59N 34°21' E 132°27'0 0.0
2018-May-05 13:26N 34°21' E 132°27'0 0.0
2018-May-05 12:59N 34°21' E 132°27'0 0.0
2018-May-05 12:29N 34°21' E 132°27'0 0.0
2018-May-05 11:59N 34°21' E 132°27'0 0.0
2018-May-05 11:29N 34°21' E 132°27'0 0.0
2018-May-05 10:56N 34°21' E 132°27'0 0.0
2018-May-05 10:29N 34°21' E 132°27'0 0.0
2018-May-05 09:59N 34°21' E 132°27'0 0.0
2018-May-05 09:29N 34°21' E 132°27'0 0.0
2018-May-05 08:59N 34°21' E 132°27'0 0.0
2018-May-05 08:29N 34°21' E 132°27'0 0.0
2018-May-05 07:59N 34°21' E 132°27'0 0.0
2018-May-05 07:29N 34°21' E 132°27'0 0.0
2018-May-05 06:59N 34°21' E 132°27'0 0.0
2018-May-05 06:29N 34°21' E 132°27'0 0.0
2018-May-05 05:59N 34°21' E 132°27'0 0.0
2018-May-05 05:29N 34°21' E 132°27'0 0.0
2018-May-05 04:59N 34°21' E 132°27'0 0.0
2018-May-05 04:26N 34°21' E 132°27'0 0.0
2018-May-05 03:59N 34°21' E 132°27'0 0.0
2018-May-05 03:29N 34°21' E 132°27'0 0.0
2018-May-05 02:59N 34°21' E 132°27'0 0.0
2018-May-05 02:29N 34°21' E 132°27'0 0.0
2018-May-05 01:56N 34°21' E 132°27'0 0.0
2018-May-05 01:29N 34°21' E 132°27'0 0.0
2018-May-05 00:59N 34°21' E 132°27'0 0.0
2018-May-05 00:29N 34°21' E 132°27'0 0.0
2018-May-04 23:59N 34°21' E 132°27'0 0.0
2018-May-04 23:29N 34°21' E 132°27'0 0.0
2018-May-04 22:56N 34°21' E 132°27'0 0.0
2018-May-04 22:29N 34°21' E 132°27'0 0.0
2018-May-04 21:59N 34°21' E 132°27'0 0.0
2018-May-04 21:29N 34°21' E 132°27'0 0.0
2018-May-04 21:00N 34°21' E 132°27'1 1.5
2018-May-04 20:30N 34°21' E 132°26'0 0.3
2018-May-04 19:58N 34°21' E 132°26'0 0.0
2018-May-04 19:29N 34°21' E 132°26'4 8.8
2018-May-04 19:01N 34°17' E 132°24'612.4
2018-May-04 18:30N 34°11' E 132°22'712.7
2018-May-04 17:59N 34°05' E 132°27'612.3
2018-May-04 17:29N 34°02' E 132°33'613.1
2018-May-04 17:01N 34°05' E 132°40'6811.6
2018-May-04 11:05N 34°25' E 133°59'513.4
2018-May-04 10:42N 34°27' E 134°05'313.4
2018-May-04 10:27N 34°26' E 134°09'1012.9
2018-May-04 09:40N 34°22' E 134°20'212.6
2018-May-04 09:30N 34°21' E 134°22'712.9
2018-May-04 09:00N 34°18' E 134°30'712.7
2018-May-04 08:29N 34°16' E 134°37'611.7
2018-May-04 08:00N 34°12' E 134°41'  
Track history (hours):
 
Tides and Currents Weather Stations Pressure Air Temp Water Temp Dewpoint Dewpoint Depression Visibility Wind Speed Wind Dir Waves Ship Positions

Tesshoumaru

Last reported at 2018-May-14 07:52 UTC. Time now 2018-May-25 18:52 UTC.
Position N 35°02' E 140°10'.
Warning: this ship's position is 11 days out of date.

Length 76 m; draft 4.5 m.

Type: Cargo ship. MMSI: 431001353.

Date/timePositionNaut miles runAvg speedWind from/ knotsBaromVisibWave heightAir tempDewpointWater temp
2018-May-14 07:52N 35°02' E 140°10'513.1
2018-May-14 07:30N 34°59' E 140°06'1512.5
2018-May-14 06:20N 34°53' E 139°49'614.8
2018-May-14 05:56N 34°58' E 139°45'613.3
2018-May-14 05:31N 35°03' E 139°45'713.3
2018-May-14 05:01N 35°10' E 139°46'612.5
2018-May-14 04:31N 35°16' E 139°46'612.4
2018-May-14 04:01N 35°22' E 139°42'612.6
2018-May-14 03:31N 35°27' E 139°47'713.3
2018-May-14 03:00N 35°32' E 139°53'713.1
2018-May-14 02:30N 35°37' E 139°58'4 2.9
2018-May-14 01:14N 35°41' E 139°57'0 0.0
2018-May-14 00:52N 35°41' E 139°57'0 0.0
2018-May-14 00:29N 35°41' E 139°57'0 0.0
2018-May-13 23:54N 35°41' E 139°57'0 0.0
2018-May-13 23:24N 35°41' E 139°57'0 0.0
2018-May-13 23:00N 35°41' E 139°57'1 2.8
2018-May-13 22:30N 35°39' E 139°58'5 9.1
2018-May-13 22:00N 35°35' E 139°56'713.2
2018-May-13 21:30N 35°29' E 139°52'713.1
2018-May-13 21:00N 35°25' E 139°47'612.7
2018-May-13 20:31N 35°19' E 139°44'611.7
2018-May-13 20:01N 35°13' E 139°47'713.6
2018-May-13 19:30N 35°07' E 139°44'713.8
2018-May-13 19:01N 35°02' E 139°38'714.7
2018-May-13 18:30N 34°57' E 139°31'815.3
2018-May-13 17:59N 34°53' E 139°23'815.4
2018-May-13 17:28N 34°48' E 139°15'914.8
2018-May-13 16:52N 34°42' E 139°07'514.1
2018-May-13 16:30N 34°39' E 139°02'713.2
2018-May-13 16:00N 34°35' E 138°56'814.4
2018-May-13 15:29N 34°34' E 138°46'714.1
2018-May-13 15:00N 34°33' E 138°38'714.1
2018-May-13 14:30N 34°32' E 138°30'713.8
2018-May-13 13:58N 34°31' E 138°21'17011.6
2018-May-12 23:25N 33°54' E 135°01'512.7
2018-May-12 23:00N 33°58' E 134°57'713.2
2018-May-12 22:30N 34°03' E 134°51'713.3
2018-May-12 22:00N 34°08' E 134°46'612.8
2018-May-12 21:30N 34°12' E 134°41'611.7
2018-May-12 21:00N 34°16' E 134°35'1 2.8
2018-May-12 20:30N 34°16' E 134°33'0 0.0
2018-May-12 19:59N 34°16' E 134°33'0 0.0
2018-May-12 19:30N 34°16' E 134°33'0 0.0
2018-May-12 19:00N 34°16' E 134°33'0 0.0
2018-May-12 18:30N 34°16' E 134°33'0 0.0
2018-May-12 17:56N 34°16' E 134°33'4 9.8
2018-May-12 17:30N 34°18' E 134°29'713.5
2018-May-12 17:00N 34°21' E 134°21'713.7
2018-May-12 16:30N 34°24' E 134°14'7713.0
2018-May-12 10:34N 34°04' E 132°43'114.3
2018-May-12 10:30N 34°03' E 132°42'713.9
2018-May-12 10:00N 33°60' E 132°35'914.4
2018-May-12 09:23N 33°54' E 132°27'614.4
2018-May-12 08:58N 33°49' E 132°23'714.1
2018-May-12 08:27N 33°44' E 132°16'2614.3
2018-May-12 06:39N 33°27' E 131°53'213.7
2018-May-12 06:30N 33°26' E 131°51'713.2
2018-May-12 05:59N 33°21' E 131°45'7 1.0
2018-May-11 22:45N 33°16' E 131°40'0 1.0
2018-May-11 22:30N 33°16' E 131°40'3 6.3
2018-May-11 21:59N 33°16' E 131°36'1 1.3
2018-May-11 21:30N 33°15' E 131°36'0 0.0
2018-May-11 21:00N 33°15' E 131°36'0 0.0
2018-May-11 20:30N 33°15' E 131°36'0 0.0
2018-May-11 20:00N 33°15' E 131°36'0 0.0
2018-May-11 19:30N 33°15' E 131°36'0 0.0
2018-May-11 19:00N 33°15' E 131°36'0 0.0
2018-May-11 18:28N 33°15' E 131°36'0 0.0
2018-May-11 18:00N 33°15' E 131°36'0 0.0
2018-May-11 17:26N 33°15' E 131°36'0 0.0
2018-May-11 17:01N 33°15' E 131°36'0 0.0
2018-May-11 16:30N 33°15' E 131°36'0 0.0
2018-May-11 15:58N 33°15' E 131°36'0 0.0
2018-May-11 12:45N 33°15' E 131°36'0 0.0
2018-May-11 12:21N 33°15' E 131°36'0 0.0
2018-May-11 11:57N 33°15' E 131°36'0 0.0
2018-May-11 11:29N 33°15' E 131°36'0 0.0
2018-May-11 11:01N 33°15' E 131°36'2 3.8
2018-May-11 10:30N 33°17' E 131°37'713.5
2018-May-11 10:00N 33°22' E 131°42'712.9
2018-May-11 09:28N 33°28' E 131°46'612.8
2018-May-11 09:00N 33°34' E 131°45'713.5
2018-May-11 08:30N 33°40' E 131°41'612.9
2018-May-11 08:00N 33°45' E 131°36'713.3
2018-May-11 07:30N 33°52' E 131°35'713.4
2018-May-11 07:00N 33°58' E 131°33'3 5.6
2018-May-11 06:30N 34°01' E 131°34'0 0.0
2018-May-11 06:01N 34°01' E 131°34'0 0.0
2018-May-11 05:22N 34°01' E 131°34'0 0.0
2018-May-11 04:52N 34°01' E 131°34'0 0.0
2018-May-11 04:22N 34°01' E 131°34'0 0.0
2018-May-11 03:58N 34°01' E 131°34'0 0.0
2018-May-11 03:28N 34°01' E 131°34'0 0.0
2018-May-11 02:58N 34°01' E 131°34'0 0.0
2018-May-11 02:19N 34°01' E 131°34'0 0.0
2018-May-11 01:58N 34°01' E 131°34'0 0.0
2018-May-11 01:19N 34°01' E 131°34'0 0.0
2018-May-11 00:58N 34°01' E 131°34'0 0.1
2018-May-11 00:10N 34°01' E 131°34'0 0.0
2018-May-10 23:52N 34°01' E 131°34'0 0.0
2018-May-10 23:28N 34°01' E 131°34'0 0.0
2018-May-10 22:58N 34°01' E 131°34'0 0.0
2018-May-10 20:16N 34°01' E 131°34'0 0.0
2018-May-10 19:58N 34°01' E 131°34'0 0.0
2018-May-10 19:28N 34°01' E 131°34'0 0.0
2018-May-10 18:46N 34°01' E 131°34'0 0.0
2018-May-10 18:16N 34°01' E 131°34'0 0.0
2018-May-10 17:46N 34°01' E 131°34'0 0.0
2018-May-10 17:22N 34°01' E 131°34'0 0.0
2018-May-10 16:58N 34°01' E 131°34'0 0.0
2018-May-10 16:22N 34°01' E 131°34'0 0.0
2018-May-10 15:46N 34°01' E 131°34'0 0.0
2018-May-10 15:28N 34°01' E 131°34'0 0.0
2018-May-10 14:58N 34°01' E 131°34'0 0.0
2018-May-10 14:28N 34°01' E 131°34'0 0.0
2018-May-10 13:58N 34°01' E 131°34'0 0.0
2018-May-10 13:22N 34°01' E 131°34'0 0.0
2018-May-10 12:58N 34°01' E 131°34'0 0.0
2018-May-10 12:28N 34°01' E 131°34'0 0.0
2018-May-10 11:58N 34°01' E 131°34'0 0.0
2018-May-10 11:22N 34°01' E 131°34'0 0.0
2018-May-10 10:58N 34°01' E 131°34'0 0.0
2018-May-10 10:22N 34°01' E 131°34'0 0.0
2018-May-10 09:58N 34°01' E 131°34'0 0.0
2018-May-10 09:28N 34°01' E 131°34'0 0.0
2018-May-10 08:52N 34°01' E 131°34'0 0.0
2018-May-10 08:10N 34°01' E 131°34'0 0.0
2018-May-10 08:01N 34°01' E 131°34'2 3.7
2018-May-10 07:30N 33°59' E 131°33'0 0.1
2018-May-10 07:00N 33°59' E 131°33'0 0.2
2018-May-10 06:30N 33°59' E 131°33'611.2
2018-May-10 06:00N 33°56' E 131°39'713.3
2018-May-10 05:30N 33°53' E 131°46'713.1
2018-May-10 05:00N 33°51' E 131°53'713.5
2018-May-10 04:30N 33°47' E 132°00'611.7
2018-May-10 04:00N 33°48' E 132°07'612.5
2018-May-10 03:30N 33°54' E 132°10'712.5
2018-May-10 02:56N 34°01' E 132°14'613.8
2018-May-10 02:30N 34°06' E 132°17'713.9
2018-May-10 02:00N 34°12' E 132°21'713.3
2018-May-10 01:30N 34°18' E 132°24'4 7.1
2018-May-10 00:59N 34°21' E 132°27'0 0.0
2018-May-10 00:29N 34°21' E 132°27'0 0.1
2018-May-09 23:59N 34°21' E 132°27'0 0.0
2018-May-09 23:29N 34°21' E 132°27'0 0.0
2018-May-09 22:59N 34°21' E 132°27'0 0.0
2018-May-09 22:29N 34°21' E 132°27'0 0.0
2018-May-09 21:59N 34°21' E 132°27'0 0.0
2018-May-09 21:29N 34°21' E 132°27'0 0.0
2018-May-09 20:59N 34°21' E 132°27'0 0.0
2018-May-09 20:29N 34°21' E 132°27'0 0.0
2018-May-09 19:59N 34°21' E 132°27'0 0.0
2018-May-09 19:29N 34°21' E 132°27'0 0.0
2018-May-09 18:59N 34°21' E 132°27'0 0.0
2018-May-09 18:29N 34°21' E 132°27'0 0.0
2018-May-09 17:59N 34°21' E 132°27'0 0.0
2018-May-09 17:29N 34°21' E 132°27'0 0.0
2018-May-09 16:59N 34°21' E 132°27'0 0.0
2018-May-09 16:29N 34°21' E 132°27'0 0.0
2018-May-09 15:59N 34°21' E 132°27'0 0.0
2018-May-09 15:26N 34°21' E 132°27'0 0.0
2018-May-09 14:59N 34°21' E 132°27'0 0.0
2018-May-09 14:26N 34°21' E 132°27'0 0.0
2018-May-09 13:59N 34°21' E 132°27'0 0.0
2018-May-09 13:29N 34°21' E 132°27'0 0.0
2018-May-09 12:59N 34°21' E 132°27'0 0.0
2018-May-09 12:26N 34°21' E 132°27'0 0.0
2018-May-09 11:59N 34°21' E 132°27'0 0.0
2018-May-09 11:29N 34°21' E 132°27'0 0.0
2018-May-09 10:59N 34°21' E 132°27'0 0.0
2018-May-09 10:29N 34°21' E 132°27'0 0.0
2018-May-09 09:59N 34°21' E 132°27'0 0.0
2018-May-09 09:29N 34°21' E 132°27'0 0.0
2018-May-09 08:59N 34°21' E 132°27'0 0.0
2018-May-09 08:29N 34°21' E 132°27'0 0.0
2018-May-09 07:59N 34°21' E 132°27'0 0.0
2018-May-09 07:29N 34°21' E 132°27'0 0.0
2018-May-09 06:59N 34°21' E 132°27'0 0.0
2018-May-09 06:29N 34°21' E 132°27'0 0.1
2018-May-09 05:59N 34°21' E 132°27'0 0.3
2018-May-09 05:29N 34°21' E 132°27'0 0.0
2018-May-09 04:59N 34°21' E 132°27'0 0.0
2018-May-09 04:26N 34°21' E 132°27'0 0.0
2018-May-09 03:59N 34°21' E 132°27'0 0.0
2018-May-09 03:29N 34°21' E 132°27'0 0.0
2018-May-09 02:59N 34°21' E 132°27'0 0.0
2018-May-09 02:29N 34°21' E 132°27'0 0.0
2018-May-09 01:59N 34°21' E 132°27'0 0.0
2018-May-09 01:29N 34°21' E 132°27'0 0.0
2018-May-09 00:56N 34°21' E 132°27'0 0.0
2018-May-09 00:26N 34°21' E 132°27'0 0.0
2018-May-08 23:59N 34°21' E 132°27'0 0.0
2018-May-08 23:29N 34°21' E 132°27'0 0.0
2018-May-08 22:59N 34°21' E 132°27'0 0.0
2018-May-08 22:29N 34°21' E 132°27'0 0.0
2018-May-08 21:59N 34°21' E 132°27'0 0.0
2018-May-08 21:26N 34°21' E 132°27'0 0.0
2018-May-08 20:56N 34°21' E 132°27'0 0.0
2018-May-08 20:26N 34°21' E 132°27'0 0.0
2018-May-08 19:56N 34°21' E 132°27'0 0.0
2018-May-08 19:26N 34°21' E 132°27'0 0.0
2018-May-08 18:56N 34°21' E 132°27'0 0.0
2018-May-08 18:26N 34°21' E 132°27'0 0.0
2018-May-08 17:59N 34°21' E 132°27'0 0.0
2018-May-08 17:26N 34°21' E 132°27'0 0.0
2018-May-08 16:59N 34°21' E 132°27'0 0.0
2018-May-08 16:29N 34°21' E 132°27'0 0.0
2018-May-08 15:56N 34°21' E 132°27'0 0.0
2018-May-08 15:26N 34°21' E 132°27'0 0.0
2018-May-08 14:59N 34°21' E 132°27'0 0.0
2018-May-08 14:29N 34°21' E 132°27'0 0.0
2018-May-08 13:59N 34°21' E 132°27'0 0.0
2018-May-08 13:29N 34°21' E 132°27'0 0.0
2018-May-08 12:59N 34°21' E 132°27'0 0.0
2018-May-08 12:29N 34°21' E 132°27'0 0.0
2018-May-08 11:59N 34°21' E 132°27'0 0.0
2018-May-08 11:29N 34°21' E 132°27'0 0.0
2018-May-08 10:59N 34°21' E 132°27'0 0.0
2018-May-08 10:29N 34°21' E 132°27'0 0.0
2018-May-08 09:59N 34°21' E 132°27'0 0.0
2018-May-08 09:29N 34°21' E 132°27'0 0.0
2018-May-08 08:59N 34°21' E 132°27'0 0.0
2018-May-08 08:29N 34°21' E 132°27'0 0.0
2018-May-08 07:59N 34°21' E 132°27'0 0.0
2018-May-08 07:29N 34°21' E 132°27'0 0.0
2018-May-08 06:59N 34°21' E 132°27'0 0.0
2018-May-08 06:26N 34°21' E 132°27'0 0.0
2018-May-08 05:59N 34°21' E 132°27'0 0.0
2018-May-08 05:29N 34°21' E 132°27'0 0.0
2018-May-08 04:59N 34°21' E 132°27'0 0.0
2018-May-08 04:29N 34°21' E 132°27'0 0.0
2018-May-08 03:59N 34°21' E 132°27'0 0.0
2018-May-08 03:29N 34°21' E 132°27'0 0.0
2018-May-08 02:59N 34°21' E 132°27'0 0.0
2018-May-08 02:29N 34°21' E 132°27'0 0.0
2018-May-08 01:59N 34°21' E 132°27'0 0.0
2018-May-08 01:29N 34°21' E 132°27'0 0.0
2018-May-08 00:59N 34°21' E 132°27'0 0.0
2018-May-08 00:29N 34°21' E 132°27'0 0.0
2018-May-07 23:59N 34°21' E 132°27'0 0.0
2018-May-07 23:29N 34°21' E 132°27'0 0.0
2018-May-07 22:59N 34°21' E 132°27'0 0.0
2018-May-07 22:23N 34°21' E 132°27'0 0.0
2018-May-07 21:59N 34°21' E 132°27'0 0.0
2018-May-07 21:29N 34°21' E 132°27'0 0.0
2018-May-07 20:53N 34°21' E 132°27'0 0.0
2018-May-07 20:26N 34°21' E 132°27'0 0.0
2018-May-07 19:59N 34°21' E 132°27'0 0.0
2018-May-07 19:29N 34°21' E 132°27'0 0.0
2018-May-07 18:59N 34°21' E 132°27'0 0.0
2018-May-07 18:26N 34°21' E 132°27'0 0.0
2018-May-07 17:59N 34°21' E 132°27'0 0.0
2018-May-07 17:29N 34°21' E 132°27'0 0.0
2018-May-07 16:59N 34°21' E 132°27'0 0.0
2018-May-07 16:29N 34°21' E 132°27'0 0.0
2018-May-07 15:59N 34°21' E 132°27'0 0.0
2018-May-07 15:29N 34°21' E 132°27'0 0.0
2018-May-07 14:59N 34°21' E 132°27'0 0.0
2018-May-07 14:29N 34°21' E 132°27'0 0.0
2018-May-07 13:59N 34°21' E 132°27'0 0.0
2018-May-07 13:26N 34°21' E 132°27'0 0.0
2018-May-07 12:59N 34°21' E 132°27'0 0.0
2018-May-07 12:29N 34°21' E 132°27'0 0.0
2018-May-07 11:59N 34°21' E 132°27'0 0.0
2018-May-07 11:29N 34°21' E 132°27'0 0.0
2018-May-07 10:59N 34°21' E 132°27'0 0.0
2018-May-07 10:29N 34°21' E 132°27'0 0.0
2018-May-07 09:50N 34°21' E 132°27'0 0.0
2018-May-07 09:29N 34°21' E 132°27'0 0.0
2018-May-07 08:59N 34°21' E 132°27'0 0.0
2018-May-07 08:29N 34°21' E 132°27'0 0.0
2018-May-07 07:59N 34°21' E 132°27'0 0.0
2018-May-07 07:29N 34°21' E 132°27'0 0.0
2018-May-07 06:59N 34°21' E 132°27'0 0.0
2018-May-07 06:26N 34°21' E 132°27'0 0.0
2018-May-07 05:59N 34°21' E 132°27'0 0.0
2018-May-07 05:29N 34°21' E 132°27'0 0.0
2018-May-07 04:59N 34°21' E 132°27'0 0.0
2018-May-07 04:29N 34°21' E 132°27'0 0.0
2018-May-07 03:59N 34°21' E 132°27'0 0.0
2018-May-07 03:29N 34°21' E 132°27'0 0.0
2018-May-07 02:59N 34°21' E 132°27'0 0.0
2018-May-07 02:29N 34°21' E 132°27'0 0.0
2018-May-07 01:59N 34°21' E 132°27'0 0.0
2018-May-07 01:29N 34°21' E 132°27'0 0.0
2018-May-07 00:59N 34°21' E 132°27'0 0.0
2018-May-07 00:29N 34°21' E 132°27'0 0.0
2018-May-06 23:59N 34°21' E 132°27'0 0.0
2018-May-06 23:29N 34°21' E 132°27'0 0.0
2018-May-06 22:59N 34°21' E 132°27'0 0.0
2018-May-06 22:29N 34°21' E 132°27'0 0.0
2018-May-06 21:59N 34°21' E 132°27'0 0.0
2018-May-06 21:26N 34°21' E 132°27'0 0.0
2018-May-06 20:59N 34°21' E 132°27'0 0.0
2018-May-06 20:29N 34°21' E 132°27'0 0.0
2018-May-06 19:59N 34°21' E 132°27'0 0.0
2018-May-06 19:29N 34°21' E 132°27'0 0.0
2018-May-06 18:59N 34°21' E 132°27'0 0.0
2018-May-06 18:29N 34°21' E 132°27'0 0.0
2018-May-06 17:59N 34°21' E 132°27'0 0.0
2018-May-06 17:29N 34°21' E 132°27'0 0.0
2018-May-06 16:59N 34°21' E 132°27'0 0.0
2018-May-06 16:29N 34°21' E 132°27'0 0.0
2018-May-06 15:59N 34°21' E 132°27'0 0.0
2018-May-06 15:29N 34°21' E 132°27'0 0.0
2018-May-06 14:59N 34°21' E 132°27'0 0.0
2018-May-06 14:29N 34°21' E 132°27'0 0.0
2018-May-06 13:59N 34°21' E 132°27'0 0.0
2018-May-06 13:29N 34°21' E 132°27'0 0.0
2018-May-06 12:59N 34°21' E 132°27'0 0.0
2018-May-06 12:29N 34°21' E 132°27'0 0.0
2018-May-06 11:59N 34°21' E 132°27'0 0.0
2018-May-06 11:29N 34°21' E 132°27'0 0.0
2018-May-06 10:59N 34°21' E 132°27'0 0.0
2018-May-06 10:29N 34°21' E 132°27'0 0.0
2018-May-06 09:59N 34°21' E 132°27'0 0.0
2018-May-06 09:29N 34°21' E 132°27'0 0.0
2018-May-06 08:59N 34°21' E 132°27'0 0.0
2018-May-06 08:29N 34°21' E 132°27'0 0.0
2018-May-06 07:59N 34°21' E 132°27'0 0.0
2018-May-06 07:29N 34°21' E 132°27'0 0.0
2018-May-06 06:59N 34°21' E 132°27'0 0.0
2018-May-06 06:29N 34°21' E 132°27'0 0.0
2018-May-06 05:59N 34°21' E 132°27'0 0.0
2018-May-06 05:29N 34°21' E 132°27'0 0.0
2018-May-06 04:59N 34°21' E 132°27'0 0.0
2018-May-06 04:26N 34°21' E 132°27'0 0.0
2018-May-06 03:59N 34°21' E 132°27'0 0.0
2018-May-06 03:29N 34°21' E 132°27'0 0.0
2018-May-06 02:56N 34°21' E 132°27'0 0.0
2018-May-06 02:29N 34°21' E 132°27'0 0.0
2018-May-06 01:59N 34°21' E 132°27'0 0.0
2018-May-06 01:26N 34°21' E 132°27'0 0.0
2018-May-06 00:56N 34°21' E 132°27'0 0.0
2018-May-06 00:29N 34°21' E 132°27'0 0.0
2018-May-05 23:59N 34°21' E 132°27'0 0.0
2018-May-05 23:29N 34°21' E 132°27'0 0.0
2018-May-05 22:59N 34°21' E 132°27'0 0.0
2018-May-05 22:20N 34°21' E 132°27'0 0.0
2018-May-05 21:59N 34°21' E 132°27'0 0.0
2018-May-05 21:29N 34°21' E 132°27'0 0.0
2018-May-05 20:59N 34°21' E 132°27'0 0.0
2018-May-05 20:29N 34°21' E 132°27'0 0.0
2018-May-05 19:59N 34°21' E 132°27'0 0.0
2018-May-05 19:29N 34°21' E 132°27'0 0.0
2018-May-05 18:59N 34°21' E 132°27'0 0.0
2018-May-05 18:26N 34°21' E 132°27'0 0.0
2018-May-05 17:59N 34°21' E 132°27'0 0.0
2018-May-05 17:29N 34°21' E 132°27'0 0.0
2018-May-05 16:59N 34°21' E 132°27'0 0.0
2018-May-05 16:29N 34°21' E 132°27'0 0.0
2018-May-05 15:59N 34°21' E 132°27'0 0.0
2018-May-05 15:29N 34°21' E 132°27'0 0.0
2018-May-05 14:59N 34°21' E 132°27'0 0.0
2018-May-05 14:29N 34°21' E 132°27'0 0.0
2018-May-05 13:59N 34°21' E 132°27'0 0.0
2018-May-05 13:26N 34°21' E 132°27'0 0.0
2018-May-05 12:59N 34°21' E 132°27'0 0.0
2018-May-05 12:29N 34°21' E 132°27'0 0.0
2018-May-05 11:59N 34°21' E 132°27'0 0.0
2018-May-05 11:29N 34°21' E 132°27'0 0.0
2018-May-05 10:56N 34°21' E 132°27'0 0.0
2018-May-05 10:29N 34°21' E 132°27'0 0.0
2018-May-05 09:59N 34°21' E 132°27'0 0.0
2018-May-05 09:29N 34°21' E 132°27'0 0.0
2018-May-05 08:59N 34°21' E 132°27'0 0.0
2018-May-05 08:29N 34°21' E 132°27'0 0.0
2018-May-05 07:59N 34°21' E 132°27'0 0.0
2018-May-05 07:29N 34°21' E 132°27'0 0.0
2018-May-05 06:59N 34°21' E 132°27'0 0.0
2018-May-05 06:29N 34°21' E 132°27'0 0.0
2018-May-05 05:59N 34°21' E 132°27'0 0.0
2018-May-05 05:29N 34°21' E 132°27'0 0.0
2018-May-05 04:59N 34°21' E 132°27'0 0.0
2018-May-05 04:26N 34°21' E 132°27'0 0.0
2018-May-05 03:59N 34°21' E 132°27'0 0.0
2018-May-05 03:29N 34°21' E 132°27'0 0.0
2018-May-05 02:59N 34°21' E 132°27'0 0.0
2018-May-05 02:29N 34°21' E 132°27'0 0.0
2018-May-05 01:56N 34°21' E 132°27'0 0.0
2018-May-05 01:29N 34°21' E 132°27'0 0.0
2018-May-05 00:59N 34°21' E 132°27'0 0.0
2018-May-05 00:29N 34°21' E 132°27'0 0.0
2018-May-04 23:59N 34°21' E 132°27'0 0.0
2018-May-04 23:29N 34°21' E 132°27'0 0.0
2018-May-04 22:56N 34°21' E 132°27'0 0.0
2018-May-04 22:29N 34°21' E 132°27'0 0.0
2018-May-04 21:59N 34°21' E 132°27'0 0.0
2018-May-04 21:29N 34°21' E 132°27'0 0.0
2018-May-04 21:00N 34°21' E 132°27'1 1.5
2018-May-04 20:30N 34°21' E 132°26'0 0.3
2018-May-04 19:58N 34°21' E 132°26'0 0.0
2018-May-04 19:29N 34°21' E 132°26'4 8.8
2018-May-04 19:01N 34°17' E 132°24'612.4
2018-May-04 18:30N 34°11' E 132°22'712.7
2018-May-04 17:59N 34°05' E 132°27'612.3
2018-May-04 17:29N 34°02' E 132°33'613.1
2018-May-04 17:01N 34°05' E 132°40'6811.6
2018-May-04 11:05N 34°25' E 133°59'513.4
2018-May-04 10:42N 34°27' E 134°05'313.4
2018-May-04 10:27N 34°26' E 134°09'1012.9
2018-May-04 09:40N 34°22' E 134°20'212.6
2018-May-04 09:30N 34°21' E 134°22'712.9
2018-May-04 09:00N 34°18' E 134°30'712.7
2018-May-04 08:29N 34°16' E 134°37'611.7
2018-May-04 08:00N 34°12' E 134°41'  

Dump ship's entire track history